sensor_id;sensor_type;location;lat;lon;timestamp;P1;durP1;ratioP1;P2;durP2;ratioP2
41623;SDS011;27319;50.306;18.926;2022-11-20T00:01:49;223.43;;;92.53;;
41623;SDS011;27319;50.306;18.926;2022-11-20T00:05:49;227.15;;;93.82;;
41623;SDS011;27319;50.306;18.926;2022-11-20T00:08:51;229.80;;;95.28;;
41623;SDS011;27319;50.306;18.926;2022-11-20T00:11:55;234.02;;;99.43;;
41623;SDS011;27319;50.306;18.926;2022-11-20T00:14:56;254.00;;;105.78;;
41623;SDS011;27319;50.306;18.926;2022-11-20T00:17:57;233.48;;;101.03;;
41623;SDS011;27319;50.306;18.926;2022-11-20T00:21:05;242.20;;;101.53;;
41623;SDS011;27319;50.306;18.926;2022-11-20T00:24:08;236.45;;;100.50;;
41623;SDS011;27319;50.306;18.926;2022-11-20T00:28:08;233.38;;;100.13;;
41623;SDS011;27319;50.306;18.926;2022-11-20T00:32:09;237.63;;;100.95;;
41623;SDS011;27319;50.306;18.926;2022-11-20T00:36:10;235.40;;;100.95;;
41623;SDS011;27319;50.306;18.926;2022-11-20T00:39:18;230.05;;;100.88;;
41623;SDS011;27319;50.306;18.926;2022-11-20T00:42:19;246.80;;;104.45;;
41623;SDS011;27319;50.306;18.926;2022-11-20T00:45:20;235.98;;;102.13;;
41623;SDS011;27319;50.306;18.926;2022-11-20T00:48:21;236.98;;;103.60;;
41623;SDS011;27319;50.306;18.926;2022-11-20T00:51:23;233.98;;;100.60;;
41623;SDS011;27319;50.306;18.926;2022-11-20T00:55:23;225.80;;;94.75;;
41623;SDS011;27319;50.306;18.926;2022-11-20T00:59:23;215.63;;;95.70;;
41623;SDS011;27319;50.306;18.926;2022-11-20T01:03:24;228.30;;;98.00;;
41623;SDS011;27319;50.306;18.926;2022-11-20T01:07:25;202.82;;;91.85;;
41623;SDS011;27319;50.306;18.926;2022-11-20T01:11:27;221.18;;;95.93;;
41623;SDS011;27319;50.306;18.926;2022-11-20T01:15:26;228.80;;;99.95;;
41623;SDS011;27319;50.306;18.926;2022-11-20T01:19:27;207.30;;;92.88;;
41623;SDS011;27319;50.306;18.926;2022-11-20T01:23:31;222.38;;;95.93;;
41623;SDS011;27319;50.306;18.926;2022-11-20T01:27:31;214.75;;;95.47;;
41623;SDS011;27319;50.306;18.926;2022-11-20T01:31:32;213.73;;;98.22;;
41623;SDS011;27319;50.306;18.926;2022-11-20T01:35:32;223.38;;;96.50;;
41623;SDS011;27319;50.306;18.926;2022-11-20T01:38:33;221.40;;;99.15;;
41623;SDS011;27319;50.306;18.926;2022-11-20T01:42:37;217.15;;;96.07;;
41623;SDS011;27319;50.306;18.926;2022-11-20T01:50:36;212.48;;;94.53;;
41623;SDS011;27319;50.306;18.926;2022-11-20T01:54:39;208.45;;;90.60;;
41623;SDS011;27319;50.306;18.926;2022-11-20T01:58:28;208.82;;;93.18;;
41623;SDS011;27319;50.306;18.926;2022-11-20T02:02:29;206.00;;;93.78;;
41623;SDS011;27319;50.306;18.926;2022-11-20T02:06:32;216.20;;;91.68;;
41623;SDS011;27319;50.306;18.926;2022-11-20T02:10:31;208.77;;;91.20;;
41623;SDS011;27319;50.306;18.926;2022-11-20T02:14:32;213.57;;;90.75;;
41623;SDS011;27319;50.306;18.926;2022-11-20T02:18:32;199.10;;;89.72;;
41623;SDS011;27319;50.306;18.926;2022-11-20T02:22:47;212.95;;;93.70;;
41623;SDS011;27319;50.306;18.926;2022-11-20T02:26:46;209.43;;;93.70;;
41623;SDS011;27319;50.306;18.926;2022-11-20T02:30:44;193.90;;;88.85;;
41623;SDS011;27319;50.306;18.926;2022-11-20T02:34:44;216.73;;;95.22;;
41623;SDS011;27319;50.306;18.926;2022-11-20T02:37:49;204.57;;;93.15;;
41623;SDS011;27319;50.306;18.926;2022-11-20T02:41:46;198.27;;;89.53;;
41623;SDS011;27319;50.306;18.926;2022-11-20T02:45:47;202.85;;;90.60;;
41623;SDS011;27319;50.306;18.926;2022-11-20T02:49:47;194.50;;;84.43;;
41623;SDS011;27319;50.306;18.926;2022-11-20T02:53:48;193.05;;;82.22;;
41623;SDS011;27319;50.306;18.926;2022-11-20T02:57:49;191.60;;;82.22;;
41623;SDS011;27319;50.306;18.926;2022-11-20T03:01:50;180.88;;;80.88;;
41623;SDS011;27319;50.306;18.926;2022-11-20T03:05:50;182.10;;;83.72;;
41623;SDS011;27319;50.306;18.926;2022-11-20T03:09:51;173.32;;;79.35;;
41623;SDS011;27319;50.306;18.926;2022-11-20T03:13:52;174.15;;;76.07;;
41623;SDS011;27319;50.306;18.926;2022-11-20T03:17:53;172.93;;;80.30;;
41623;SDS011;27319;50.306;18.926;2022-11-20T03:21:53;177.35;;;80.25;;
41623;SDS011;27319;50.306;18.926;2022-11-20T03:25:54;175.20;;;83.97;;
41623;SDS011;27319;50.306;18.926;2022-11-20T03:29:54;169.13;;;78.63;;
41623;SDS011;27319;50.306;18.926;2022-11-20T03:33:56;177.13;;;81.40;;
41623;SDS011;27319;50.306;18.926;2022-11-20T03:37:36;180.75;;;81.57;;
41623;SDS011;27319;50.306;18.926;2022-11-20T03:40:38;176.93;;;80.88;;
41623;SDS011;27319;50.306;18.926;2022-11-20T03:44:06;170.13;;;80.97;;
41623;SDS011;27319;50.306;18.926;2022-11-20T03:47:33;163.45;;;80.53;;
41623;SDS011;27319;50.306;18.926;2022-11-20T03:51:35;161.68;;;74.82;;
41623;SDS011;27319;50.306;18.926;2022-11-20T03:54:36;180.00;;;77.88;;
41623;SDS011;27319;50.306;18.926;2022-11-20T03:57:37;174.48;;;79.55;;
41623;SDS011;27319;50.306;18.926;2022-11-20T04:00:38;164.93;;;75.38;;
41623;SDS011;27319;50.306;18.926;2022-11-20T04:03:40;172.98;;;78.72;;
41623;SDS011;27319;50.306;18.926;2022-11-20T04:07:40;175.68;;;76.53;;
41623;SDS011;27319;50.306;18.926;2022-11-20T04:11:40;159.88;;;74.47;;
41623;SDS011;27319;50.306;18.926;2022-11-20T04:15:41;158.93;;;75.07;;
41623;SDS011;27319;50.306;18.926;2022-11-20T04:19:42;147.65;;;71.05;;
41623;SDS011;27319;50.306;18.926;2022-11-20T04:23:43;155.10;;;72.10;;
41623;SDS011;27319;50.306;18.926;2022-11-20T04:27:43;167.98;;;75.28;;
41623;SDS011;27319;50.306;18.926;2022-11-20T04:31:44;155.32;;;72.30;;
41623;SDS011;27319;50.306;18.926;2022-11-20T04:35:45;159.27;;;74.07;;
41623;SDS011;27319;50.306;18.926;2022-11-20T04:38:52;155.35;;;71.78;;
41623;SDS011;27319;50.306;18.926;2022-11-20T04:42:52;161.35;;;75.53;;
41623;SDS011;27319;50.306;18.926;2022-11-20T04:46:52;155.52;;;72.47;;
41623;SDS011;27319;50.306;18.926;2022-11-20T04:50:53;148.65;;;71.05;;
41623;SDS011;27319;50.306;18.926;2022-11-20T04:54:05;153.23;;;75.63;;
41623;SDS011;27319;50.306;18.926;2022-11-20T04:57:06;152.60;;;72.03;;
41623;SDS011;27319;50.306;18.926;2022-11-20T05:01:09;153.00;;;72.20;;
41623;SDS011;27319;50.306;18.926;2022-11-20T05:05:07;157.48;;;71.93;;
41623;SDS011;27319;50.306;18.926;2022-11-20T05:09:08;163.75;;;71.22;;
41623;SDS011;27319;50.306;18.926;2022-11-20T05:13:09;160.27;;;71.75;;
41623;SDS011;27319;50.306;18.926;2022-11-20T05:17:10;157.40;;;70.13;;
41623;SDS011;27319;50.306;18.926;2022-11-20T05:21:11;153.75;;;69.68;;
41623;SDS011;27319;50.306;18.926;2022-11-20T05:25:11;173.20;;;75.07;;
41623;SDS011;27319;50.306;18.926;2022-11-20T05:28:39;151.90;;;71.55;;
41623;SDS011;27319;50.306;18.926;2022-11-20T05:31:40;168.45;;;73.43;;
41623;SDS011;27319;50.306;18.926;2022-11-20T05:34:41;145.95;;;70.65;;
41623;SDS011;27319;50.306;18.926;2022-11-20T05:37:42;152.15;;;70.35;;
41623;SDS011;27319;50.306;18.926;2022-11-20T05:41:43;148.02;;;69.95;;
41623;SDS011;27319;50.306;18.926;2022-11-20T05:45:53;155.50;;;71.22;;
41623;SDS011;27319;50.306;18.926;2022-11-20T05:49:53;158.95;;;70.18;;
41623;SDS011;27319;50.306;18.926;2022-11-20T05:53:57;143.35;;;66.07;;
41623;SDS011;27319;50.306;18.926;2022-11-20T05:57:57;151.30;;;68.53;;
41623;SDS011;27319;50.306;18.926;2022-11-20T06:01:59;152.88;;;71.80;;
41623;SDS011;27319;50.306;18.926;2022-11-20T06:06:00;151.85;;;72.38;;
41623;SDS011;27319;50.306;18.926;2022-11-20T06:10:00;148.77;;;67.13;;
41623;SDS011;27319;50.306;18.926;2022-11-20T06:14:00;147.60;;;70.13;;
41623;SDS011;27319;50.306;18.926;2022-11-20T06:18:02;156.77;;;72.68;;
41623;SDS011;27319;50.306;18.926;2022-11-20T06:22:02;148.93;;;72.90;;
41623;SDS011;27319;50.306;18.926;2022-11-20T06:26:07;163.32;;;72.85;;
41623;SDS011;27319;50.306;18.926;2022-11-20T06:30:04;160.93;;;74.20;;
41623;SDS011;27319;50.306;18.926;2022-11-20T06:34:05;160.18;;;74.68;;
41623;SDS011;27319;50.306;18.926;2022-11-20T06:37:06;154.15;;;75.32;;
41623;SDS011;27319;50.306;18.926;2022-11-20T06:40:07;156.85;;;74.40;;
41623;SDS011;27319;50.306;18.926;2022-11-20T06:43:50;153.30;;;72.72;;
41623;SDS011;27319;50.306;18.926;2022-11-20T06:47:51;158.10;;;73.65;;
41623;SDS011;27319;50.306;18.926;2022-11-20T06:51:51;157.93;;;74.38;;
41623;SDS011;27319;50.306;18.926;2022-11-20T06:55:52;157.18;;;70.00;;
41623;SDS011;27319;50.306;18.926;2022-11-20T06:59:52;159.98;;;71.05;;
41623;SDS011;27319;50.306;18.926;2022-11-20T07:03:54;164.23;;;72.93;;
41623;SDS011;27319;50.306;18.926;2022-11-20T07:07:55;155.45;;;71.85;;
41623;SDS011;27319;50.306;18.926;2022-11-20T07:11:55;151.25;;;71.13;;
41623;SDS011;27319;50.306;18.926;2022-11-20T07:15:59;138.48;;;66.63;;
41623;SDS011;27319;50.306;18.926;2022-11-20T07:19:56;140.25;;;67.95;;
41623;SDS011;27319;50.306;18.926;2022-11-20T07:23:57;139.68;;;68.95;;
41623;SDS011;27319;50.306;18.926;2022-11-20T07:27:58;160.18;;;72.53;;
41623;SDS011;27319;50.306;18.926;2022-11-20T07:31:58;168.77;;;78.35;;
41623;SDS011;27319;50.306;18.926;2022-11-20T07:35:59;167.32;;;75.20;;
41623;SDS011;27319;50.306;18.926;2022-11-20T07:40:00;161.95;;;74.03;;
41623;SDS011;27319;50.306;18.926;2022-11-20T07:44:01;166.55;;;79.85;;
41623;SDS011;27319;50.306;18.926;2022-11-20T07:48:01;162.02;;;76.65;;
41623;SDS011;27319;50.306;18.926;2022-11-20T07:52:02;155.98;;;75.20;;
41623;SDS011;27319;50.306;18.926;2022-11-20T07:56:03;155.88;;;72.68;;
41623;SDS011;27319;50.306;18.926;2022-11-20T08:00:04;160.07;;;75.70;;
41623;SDS011;27319;50.306;18.926;2022-11-20T08:03:26;179.98;;;85.07;;
41623;SDS011;27319;50.306;18.926;2022-11-20T08:07:27;185.23;;;85.13;;
41623;SDS011;27319;50.306;18.926;2022-11-20T08:11:27;193.00;;;92.07;;
41623;SDS011;27319;50.306;18.926;2022-11-20T08:15:26;208.82;;;97.05;;
41623;SDS011;27319;50.306;18.926;2022-11-20T08:19:27;199.10;;;93.07;;
41623;SDS011;27319;50.306;18.926;2022-11-20T08:23:28;210.77;;;99.70;;
41623;SDS011;27319;50.306;18.926;2022-11-20T08:27:28;176.48;;;83.47;;
41623;SDS011;27319;50.306;18.926;2022-11-20T08:31:29;359.80;;;157.20;;
41623;SDS011;27319;50.306;18.926;2022-11-20T08:35:33;176.68;;;87.97;;
41623;SDS011;27319;50.306;18.926;2022-11-20T08:38:35;152.68;;;80.88;;
41623;SDS011;27319;50.306;18.926;2022-11-20T08:42:36;169.40;;;83.22;;
41623;SDS011;27319;50.306;18.926;2022-11-20T08:45:57;165.13;;;81.18;;
41623;SDS011;27319;50.306;18.926;2022-11-20T08:49:57;157.02;;;75.70;;
41623;SDS011;27319;50.306;18.926;2022-11-20T08:53:58;144.57;;;72.93;;
41623;SDS011;27319;50.306;18.926;2022-11-20T08:58:02;139.63;;;67.13;;
41623;SDS011;27319;50.306;18.926;2022-11-20T09:01:59;139.13;;;66.05;;
41623;SDS011;27319;50.306;18.926;2022-11-20T09:06:01;124.40;;;63.60;;
41623;SDS011;27319;50.306;18.926;2022-11-20T09:10:01;122.95;;;64.18;;
41623;SDS011;27319;50.306;18.926;2022-11-20T09:14:01;117.10;;;58.17;;
41623;SDS011;27319;50.306;18.926;2022-11-20T09:18:02;116.47;;;58.33;;
41623;SDS011;27319;50.306;18.926;2022-11-20T09:22:03;112.30;;;55.83;;
41623;SDS011;27319;50.306;18.926;2022-11-20T09:26:04;119.03;;;57.72;;
41623;SDS011;27319;50.306;18.926;2022-11-20T09:30:04;109.45;;;57.60;;
41623;SDS011;27319;50.306;18.926;2022-11-20T09:34:05;103.50;;;51.65;;
41623;SDS011;27319;50.306;18.926;2022-11-20T09:37:06;103.07;;;57.22;;
41623;SDS011;27319;50.306;18.926;2022-11-20T09:41:10;100.88;;;53.13;;
41623;SDS011;27319;50.306;18.926;2022-11-20T09:55:28;94.13;;;50.67;;
41623;SDS011;27319;50.306;18.926;2022-11-20T09:59:32;91.35;;;51.10;;
41623;SDS011;27319;50.306;18.926;2022-11-20T10:03:37;99.75;;;50.92;;
41623;SDS011;27319;50.306;18.926;2022-11-20T10:11:59;91.15;;;45.33;;
41623;SDS011;27319;50.306;18.926;2022-11-20T10:30:45;78.82;;;43.03;;
41623;SDS011;27319;50.306;18.926;2022-11-20T10:38:03;92.78;;;45.42;;
41623;SDS011;27319;50.306;18.926;2022-11-20T10:42:02;83.47;;;43.25;;
41623;SDS011;27319;50.306;18.926;2022-11-20T10:45:16;87.18;;;43.72;;
41623;SDS011;27319;50.306;18.926;2022-11-20T10:49:16;82.18;;;43.55;;
41623;SDS011;27319;50.306;18.926;2022-11-20T11:01:11;76.03;;;40.80;;
41623;SDS011;27319;50.306;18.926;2022-11-20T11:05:10;77.60;;;38.97;;
41623;SDS011;27319;50.306;18.926;2022-11-20T11:09:32;79.07;;;39.40;;
41623;SDS011;27319;50.306;18.926;2022-11-20T11:13:26;69.40;;;36.92;;
41623;SDS011;27319;50.306;18.926;2022-11-20T11:17:30;80.68;;;41.35;;
41623;SDS011;27319;50.306;18.926;2022-11-20T11:21:30;76.50;;;38.95;;
41623;SDS011;27319;50.306;18.926;2022-11-20T11:25:31;78.00;;;42.15;;
41623;SDS011;27319;50.306;18.926;2022-11-20T11:29:33;81.82;;;42.25;;
41623;SDS011;27319;50.306;18.926;2022-11-20T11:34:03;84.20;;;42.83;;
41623;SDS011;27319;50.306;18.926;2022-11-20T11:37:22;91.00;;;44.37;;
41623;SDS011;27319;50.306;18.926;2022-11-20T11:40:23;92.10;;;47.22;;
41623;SDS011;27319;50.306;18.926;2022-11-20T11:43:25;85.20;;;46.28;;
41623;SDS011;27319;50.306;18.926;2022-11-20T11:46:55;90.93;;;45.15;;
41623;SDS011;27319;50.306;18.926;2022-11-20T11:50:01;95.82;;;48.33;;
41623;SDS011;27319;50.306;18.926;2022-11-20T11:53:05;97.18;;;50.35;;
41623;SDS011;27319;50.306;18.926;2022-11-20T11:56:12;106.68;;;52.08;;
41623;SDS011;27319;50.306;18.926;2022-11-20T11:59:17;92.35;;;49.30;;
41623;SDS011;27319;50.306;18.926;2022-11-20T12:05:47;98.43;;;51.92;;
41623;SDS011;27319;50.306;18.926;2022-11-20T12:12:05;114.63;;;60.40;;
41623;SDS011;27319;50.306;18.926;2022-11-20T12:16:09;125.22;;;59.95;;
41623;SDS011;27319;50.306;18.926;2022-11-20T12:20:12;103.70;;;53.97;;
41623;SDS011;27319;50.306;18.926;2022-11-20T12:42:25;89.90;;;48.53;;
41623;SDS011;27319;50.306;18.926;2022-11-20T13:08:27;91.93;;;49.67;;
41623;SDS011;27319;50.306;18.926;2022-11-20T13:12:35;91.10;;;48.95;;
41623;SDS011;27319;50.306;18.926;2022-11-20T13:18:47;91.85;;;48.83;;
41623;SDS011;27319;50.306;18.926;2022-11-20T13:22:12;90.55;;;47.22;;
41623;SDS011;27319;50.306;18.926;2022-11-20T13:26:31;99.45;;;51.83;;
41623;SDS011;27319;50.306;18.926;2022-11-20T13:30:24;96.68;;;51.05;;
41623;SDS011;27319;50.306;18.926;2022-11-20T13:34:30;95.30;;;50.45;;
41623;SDS011;27319;50.306;18.926;2022-11-20T13:37:33;100.72;;;54.97;;
41623;SDS011;27319;50.306;18.926;2022-11-20T13:40:52;98.18;;;52.70;;
41623;SDS011;27319;50.306;18.926;2022-11-20T13:43:58;103.32;;;53.13;;
41623;SDS011;27319;50.306;18.926;2022-11-20T13:47:21;100.55;;;51.30;;
41623;SDS011;27319;50.306;18.926;2022-11-20T14:00:13;96.20;;;49.85;;
41623;SDS011;27319;50.306;18.926;2022-11-20T14:04:29;93.85;;;50.22;;
41623;SDS011;27319;50.306;18.926;2022-11-20T14:12:23;99.43;;;53.13;;
41623;SDS011;27319;50.306;18.926;2022-11-20T14:16:23;102.22;;;57.50;;
41623;SDS011;27319;50.306;18.926;2022-11-20T14:20:24;106.10;;;55.97;;
41623;SDS011;27319;50.306;18.926;2022-11-20T14:24:25;115.47;;;57.47;;
41623;SDS011;27319;50.306;18.926;2022-11-20T14:28:26;111.05;;;57.88;;
41623;SDS011;27319;50.306;18.926;2022-11-20T14:32:26;115.00;;;59.70;;
41623;SDS011;27319;50.306;18.926;2022-11-20T14:36:22;112.53;;;57.63;;
41623;SDS011;27319;50.306;18.926;2022-11-20T14:40:24;110.53;;;57.42;;
41623;SDS011;27319;50.306;18.926;2022-11-20T14:44:22;114.75;;;59.50;;
41623;SDS011;27319;50.306;18.926;2022-11-20T14:48:23;114.15;;;58.60;;
41623;SDS011;27319;50.306;18.926;2022-11-20T14:52:28;120.25;;;62.45;;
41623;SDS011;27319;50.306;18.926;2022-11-20T14:56:31;123.15;;;64.90;;
41623;SDS011;27319;50.306;18.926;2022-11-20T15:00:22;122.75;;;64.05;;
41623;SDS011;27319;50.306;18.926;2022-11-20T15:04:23;124.13;;;62.85;;
41623;SDS011;27319;50.306;18.926;2022-11-20T15:08:29;125.57;;;63.15;;
41623;SDS011;27319;50.306;18.926;2022-11-20T15:12:40;124.15;;;65.03;;
41623;SDS011;27319;50.306;18.926;2022-11-20T15:16:47;122.45;;;63.03;;
41623;SDS011;27319;50.306;18.926;2022-11-20T15:20:30;125.25;;;63.95;;
41623;SDS011;27319;50.306;18.926;2022-11-20T15:24:29;123.80;;;64.75;;
41623;SDS011;27319;50.306;18.926;2022-11-20T15:28:30;135.60;;;66.32;;
41623;SDS011;27319;50.306;18.926;2022-11-20T15:32:30;130.43;;;70.57;;
41623;SDS011;27319;50.306;18.926;2022-11-20T15:36:26;142.50;;;72.25;;
41623;SDS011;27319;50.306;18.926;2022-11-20T15:39:27;135.77;;;72.40;;
41623;SDS011;27319;50.306;18.926;2022-11-20T15:43:28;135.93;;;70.50;;
41623;SDS011;27319;50.306;18.926;2022-11-20T15:47:29;135.95;;;71.68;;
41623;SDS011;27319;50.306;18.926;2022-11-20T15:51:39;136.65;;;71.22;;
41623;SDS011;27319;50.306;18.926;2022-11-20T15:55:30;143.50;;;72.13;;
41623;SDS011;27319;50.306;18.926;2022-11-20T15:59:31;137.20;;;70.60;;
41623;SDS011;27319;50.306;18.926;2022-11-20T16:03:31;142.98;;;73.45;;
41623;SDS011;27319;50.306;18.926;2022-11-20T16:07:32;133.15;;;72.18;;
41623;SDS011;27319;50.306;18.926;2022-11-20T16:11:33;135.50;;;72.88;;
41623;SDS011;27319;50.306;18.926;2022-11-20T16:15:39;146.57;;;77.43;;
41623;SDS011;27319;50.306;18.926;2022-11-20T16:19:42;145.68;;;74.50;;
41623;SDS011;27319;50.306;18.926;2022-11-20T16:23:43;134.27;;;67.72;;
41623;SDS011;27319;50.306;18.926;2022-11-20T16:27:44;136.05;;;67.28;;
41623;SDS011;27319;50.306;18.926;2022-11-20T16:31:45;125.30;;;61.70;;
41623;SDS011;27319;50.306;18.926;2022-11-20T16:35:45;118.03;;;60.42;;
41623;SDS011;27319;50.306;18.926;2022-11-20T16:38:46;107.22;;;52.40;;
41623;SDS011;27319;50.306;18.926;2022-11-20T16:41:55;106.22;;;51.72;;
41623;SDS011;27319;50.306;18.926;2022-11-20T16:44:56;88.13;;;47.38;;
41623;SDS011;27319;50.306;18.926;2022-11-20T16:47:56;83.30;;;41.13;;
41623;SDS011;27319;50.306;18.926;2022-11-20T16:50:58;84.32;;;43.42;;
41623;SDS011;27319;50.306;18.926;2022-11-20T16:54:58;91.63;;;57.50;;
41623;SDS011;27319;50.306;18.926;2022-11-20T16:58:59;75.38;;;38.17;;
41623;SDS011;27319;50.306;18.926;2022-11-20T17:02:59;78.50;;;38.08;;
41623;SDS011;27319;50.306;18.926;2022-11-20T17:07:01;74.13;;;37.13;;
41623;SDS011;27319;50.306;18.926;2022-11-20T17:11:08;90.20;;;44.80;;
41623;SDS011;27319;50.306;18.926;2022-11-20T17:14:28;79.88;;;40.25;;
41623;SDS011;27319;50.306;18.926;2022-11-20T17:18:29;72.50;;;37.75;;
41623;SDS011;27319;50.306;18.926;2022-11-20T17:21:31;80.85;;;38.20;;
41623;SDS011;27319;50.306;18.926;2022-11-20T17:24:35;82.40;;;42.15;;
41623;SDS011;27319;50.306;18.926;2022-11-20T17:27:36;73.03;;;39.28;;
41623;SDS011;27319;50.306;18.926;2022-11-20T17:30:37;74.13;;;39.90;;
41623;SDS011;27319;50.306;18.926;2022-11-20T17:34:38;78.57;;;39.67;;
41623;SDS011;27319;50.306;18.926;2022-11-20T17:37:38;72.90;;;39.05;;
41623;SDS011;27319;50.306;18.926;2022-11-20T17:41:39;86.47;;;44.10;;
41623;SDS011;27319;50.306;18.926;2022-11-20T17:45:46;78.55;;;41.47;;
41623;SDS011;27319;50.306;18.926;2022-11-20T17:49:47;92.82;;;46.83;;
41623;SDS011;27319;50.306;18.926;2022-11-20T17:53:48;96.60;;;44.95;;
41623;SDS011;27319;50.306;18.926;2022-11-20T17:57:48;84.78;;;42.22;;
41623;SDS011;27319;50.306;18.926;2022-11-20T18:01:48;85.90;;;44.30;;
41623;SDS011;27319;50.306;18.926;2022-11-20T18:05:49;79.75;;;40.92;;
41623;SDS011;27319;50.306;18.926;2022-11-20T18:08:56;85.13;;;43.13;;
41623;SDS011;27319;50.306;18.926;2022-11-20T18:11:58;88.43;;;43.85;;
41623;SDS011;27319;50.306;18.926;2022-11-20T18:16:06;89.07;;;44.28;;
41623;SDS011;27319;50.306;18.926;2022-11-20T18:20:06;87.45;;;43.72;;
41623;SDS011;27319;50.306;18.926;2022-11-20T18:24:07;86.72;;;43.42;;
41623;SDS011;27319;50.306;18.926;2022-11-20T18:28:08;89.78;;;44.67;;
41623;SDS011;27319;50.306;18.926;2022-11-20T18:32:08;88.20;;;42.47;;
41623;SDS011;27319;50.306;18.926;2022-11-20T18:35:09;91.85;;;46.70;;
41623;SDS011;27319;50.306;18.926;2022-11-20T18:39:10;89.72;;;45.75;;
41623;SDS011;27319;50.306;18.926;2022-11-20T18:43:11;90.40;;;46.20;;
41623;SDS011;27319;50.306;18.926;2022-11-20T18:47:11;98.95;;;49.05;;
41623;SDS011;27319;50.306;18.926;2022-11-20T18:51:11;108.10;;;52.35;;
41623;SDS011;27319;50.306;18.926;2022-11-20T18:55:11;99.63;;;49.80;;
41623;SDS011;27319;50.306;18.926;2022-11-20T18:59:12;98.65;;;47.05;;
41623;SDS011;27319;50.306;18.926;2022-11-20T19:03:12;95.95;;;48.38;;
41623;SDS011;27319;50.306;18.926;2022-11-20T19:07:13;107.13;;;50.40;;
41623;SDS011;27319;50.306;18.926;2022-11-20T19:11:14;88.63;;;45.88;;
41623;SDS011;27319;50.306;18.926;2022-11-20T19:15:15;89.45;;;45.20;;
41623;SDS011;27319;50.306;18.926;2022-11-20T19:19:15;101.60;;;49.65;;
41623;SDS011;27319;50.306;18.926;2022-11-20T19:23:16;98.75;;;47.75;;
41623;SDS011;27319;50.306;18.926;2022-11-20T19:27:17;102.80;;;47.30;;
41623;SDS011;27319;50.306;18.926;2022-11-20T19:31:19;88.03;;;43.88;;
41623;SDS011;27319;50.306;18.926;2022-11-20T19:35:18;100.43;;;46.30;;
41623;SDS011;27319;50.306;18.926;2022-11-20T19:38:19;94.68;;;45.22;;
41623;SDS011;27319;50.306;18.926;2022-11-20T19:42:20;88.97;;;42.13;;
41623;SDS011;27319;50.306;18.926;2022-11-20T19:46:20;87.50;;;42.67;;
41623;SDS011;27319;50.306;18.926;2022-11-20T19:50:21;88.22;;;44.45;;
41623;SDS011;27319;50.306;18.926;2022-11-20T19:54:22;110.95;;;54.22;;
41623;SDS011;27319;50.306;18.926;2022-11-20T19:58:22;121.22;;;55.85;;
41623;SDS011;27319;50.306;18.926;2022-11-20T20:02:23;133.77;;;58.28;;
41623;SDS011;27319;50.306;18.926;2022-11-20T20:06:24;121.38;;;55.38;;
41623;SDS011;27319;50.306;18.926;2022-11-20T20:10:24;124.07;;;58.17;;
41623;SDS011;27319;50.306;18.926;2022-11-20T20:14:25;155.65;;;70.13;;
41623;SDS011;27319;50.306;18.926;2022-11-20T20:18:26;158.35;;;71.00;;
41623;SDS011;27319;50.306;18.926;2022-11-20T20:22:26;119.00;;;55.58;;
41623;SDS011;27319;50.306;18.926;2022-11-20T20:26:28;110.85;;;52.88;;
41623;SDS011;27319;50.306;18.926;2022-11-20T20:30:27;107.78;;;53.70;;
41623;SDS011;27319;50.306;18.926;2022-11-20T20:34:28;105.60;;;49.75;;
41623;SDS011;27319;50.306;18.926;2022-11-20T20:37:31;99.63;;;46.05;;
41623;SDS011;27319;50.306;18.926;2022-11-20T20:40:32;94.53;;;44.75;;
41623;SDS011;27319;50.306;18.926;2022-11-20T20:44:33;92.97;;;47.72;;
41623;SDS011;27319;50.306;18.926;2022-11-20T20:48:36;96.82;;;45.63;;
41623;SDS011;27319;50.306;18.926;2022-11-20T20:52:37;93.30;;;46.08;;
41623;SDS011;27319;50.306;18.926;2022-11-20T20:56:40;101.88;;;48.63;;
41623;SDS011;27319;50.306;18.926;2022-11-20T21:00:40;90.68;;;42.95;;
41623;SDS011;27319;50.306;18.926;2022-11-20T21:04:41;101.72;;;49.35;;
41623;SDS011;27319;50.306;18.926;2022-11-20T21:08:42;93.10;;;47.75;;
41623;SDS011;27319;50.306;18.926;2022-11-20T21:12:42;103.20;;;47.28;;
41623;SDS011;27319;50.306;18.926;2022-11-20T21:16:46;100.45;;;47.78;;
41623;SDS011;27319;50.306;18.926;2022-11-20T21:20:47;98.57;;;49.83;;
41623;SDS011;27319;50.306;18.926;2022-11-20T21:24:46;104.03;;;48.72;;
41623;SDS011;27319;50.306;18.926;2022-11-20T21:28:47;94.25;;;45.80;;
41623;SDS011;27319;50.306;18.926;2022-11-20T21:32:48;99.25;;;45.20;;
41623;SDS011;27319;50.306;18.926;2022-11-20T21:36:29;91.32;;;46.13;;
41623;SDS011;27319;50.306;18.926;2022-11-20T21:39:31;96.13;;;46.45;;
41623;SDS011;27319;50.306;18.926;2022-11-20T21:43:31;158.23;;;74.60;;
41623;SDS011;27319;50.306;18.926;2022-11-20T21:47:32;163.27;;;73.97;;
41623;SDS011;27319;50.306;18.926;2022-11-20T21:51:33;179.27;;;82.82;;
41623;SDS011;27319;50.306;18.926;2022-11-20T21:54:33;259.83;;;109.43;;
41623;SDS011;27319;50.306;18.926;2022-11-20T21:57:35;279.88;;;109.85;;
41623;SDS011;27319;50.306;18.926;2022-11-20T22:00:36;257.15;;;99.00;;
41623;SDS011;27319;50.306;18.926;2022-11-20T22:03:37;243.02;;;92.57;;
41623;SDS011;27319;50.306;18.926;2022-11-20T22:07:41;207.82;;;81.97;;
41623;SDS011;27319;50.306;18.926;2022-11-20T22:11:39;169.52;;;69.03;;
41623;SDS011;27319;50.306;18.926;2022-11-20T22:15:39;137.52;;;59.63;;
41623;SDS011;27319;50.306;18.926;2022-11-20T22:19:40;121.38;;;59.42;;
41623;SDS011;27319;50.306;18.926;2022-11-20T22:23:40;120.53;;;54.33;;
41623;SDS011;27319;50.306;18.926;2022-11-20T22:27:41;106.88;;;50.55;;
41623;SDS011;27319;50.306;18.926;2022-11-20T22:30:45;108.57;;;53.35;;
41623;SDS011;27319;50.306;18.926;2022-11-20T22:33:46;116.43;;;55.70;;
41623;SDS011;27319;50.306;18.926;2022-11-20T22:36:47;113.57;;;53.58;;
41623;SDS011;27319;50.306;18.926;2022-11-20T22:40:48;121.32;;;55.72;;
41623;SDS011;27319;50.306;18.926;2022-11-20T22:44:16;140.30;;;59.42;;
41623;SDS011;27319;50.306;18.926;2022-11-20T22:48:16;129.70;;;58.58;;
41623;SDS011;27319;50.306;18.926;2022-11-20T22:51:18;112.63;;;51.90;;
41623;SDS011;27319;50.306;18.926;2022-11-20T22:54:21;133.77;;;58.75;;
41623;SDS011;27319;50.306;18.926;2022-11-20T22:57:22;131.80;;;58.03;;
41623;SDS011;27319;50.306;18.926;2022-11-20T23:01:07;129.95;;;58.83;;
41623;SDS011;27319;50.306;18.926;2022-11-20T23:04:09;130.43;;;57.78;;
41623;SDS011;27319;50.306;18.926;2022-11-20T23:07:10;121.55;;;54.00;;
41623;SDS011;27319;50.306;18.926;2022-11-20T23:10:11;124.63;;;58.70;;
41623;SDS011;27319;50.306;18.926;2022-11-20T23:13:12;130.38;;;61.35;;
41623;SDS011;27319;50.306;18.926;2022-11-20T23:16:14;143.57;;;67.85;;
41623;SDS011;27319;50.306;18.926;2022-11-20T23:19:17;153.25;;;70.60;;